Terminal Aerodrome Forecast
Issued by NWS

Home | Current Version | Previous Version | Text Only | Print | Product List | Glossary On
Versions: 1 2 3 4 5 6 7 8 9 10 11 12 13
893
FTUS45 KFGZ 271120
TAFGCN
TAF
KGCN 271120Z 2712/2812 VRB03KT P6SM SCT120 BKN250
     FM271700 22018G28KT P6SM BKN060 BKN100
      TEMPO 2720/2724 6SM -TSRA BKN045CB
     FM280300 29010KT P6SM -SHRA BKN025 OVC040
     FM280600 27008KT 6SM -SHSN BKN025 OVC040
     FM280900 27008KT P6SM OVC025=

USA.gov is the U.S. government's official web portal to all federal, state and local government web resources and services.